sensor_id;sensor_type;location;lat;lon;timestamp;P1;durP1;ratioP1;P2;durP2;ratioP2
59492;SDS011;45497;43.996;22.876;2023-03-01T00:01:17;29.88;;;19.42;;
59492;SDS011;45497;43.996;22.876;2023-03-01T00:03:47;30.02;;;19.33;;
59492;SDS011;45497;43.996;22.876;2023-03-01T00:06:12;28.83;;;19.27;;
59492;SDS011;45497;43.996;22.876;2023-03-01T00:08:38;25.80;;;17.55;;
59492;SDS011;45497;43.996;22.876;2023-03-01T00:13:31;28.55;;;18.33;;
59492;SDS011;45497;43.996;22.876;2023-03-01T00:15:56;28.63;;;18.95;;
59492;SDS011;45497;43.996;22.876;2023-03-01T00:18:22;30.65;;;19.13;;
59492;SDS011;45497;43.996;22.876;2023-03-01T00:20:51;28.60;;;18.02;;
59492;SDS011;45497;43.996;22.876;2023-03-01T00:23:18;28.77;;;18.73;;
59492;SDS011;45497;43.996;22.876;2023-03-01T00:25:43;28.60;;;18.95;;
59492;SDS011;45497;43.996;22.876;2023-03-01T00:28:09;31.13;;;19.70;;
59492;SDS011;45497;43.996;22.876;2023-03-01T00:30:35;26.10;;;18.10;;
59492;SDS011;45497;43.996;22.876;2023-03-01T00:33:00;27.03;;;18.17;;
59492;SDS011;45497;43.996;22.876;2023-03-01T00:35:26;27.25;;;17.40;;
59492;SDS011;45497;43.996;22.876;2023-03-01T00:37:51;30.53;;;18.60;;
59492;SDS011;45497;43.996;22.876;2023-03-01T00:40:23;26.63;;;18.55;;
59492;SDS011;45497;43.996;22.876;2023-03-01T00:42:49;30.03;;;18.00;;
59492;SDS011;45497;43.996;22.876;2023-03-01T00:45:15;26.65;;;17.83;;
59492;SDS011;45497;43.996;22.876;2023-03-01T00:47:41;31.02;;;19.50;;
59492;SDS011;45497;43.996;22.876;2023-03-01T00:50:06;28.77;;;19.10;;
59492;SDS011;45497;43.996;22.876;2023-03-01T00:52:32;30.63;;;19.27;;
59492;SDS011;45497;43.996;22.876;2023-03-01T00:54:58;27.03;;;19.40;;
59492;SDS011;45497;43.996;22.876;2023-03-01T00:57:23;29.40;;;20.60;;
59492;SDS011;45497;43.996;22.876;2023-03-01T00:59:49;29.27;;;20.33;;
59492;SDS011;45497;43.996;22.876;2023-03-01T01:02:14;27.67;;;19.10;;
59492;SDS011;45497;43.996;22.876;2023-03-01T01:04:40;28.43;;;19.10;;
59492;SDS011;45497;43.996;22.876;2023-03-01T01:07:05;25.47;;;18.67;;
59492;SDS011;45497;43.996;22.876;2023-03-01T01:09:31;26.63;;;18.50;;
59492;SDS011;45497;43.996;22.876;2023-03-01T01:11:56;27.38;;;18.83;;
59492;SDS011;45497;43.996;22.876;2023-03-01T01:14:22;29.20;;;18.93;;
59492;SDS011;45497;43.996;22.876;2023-03-01T01:16:47;25.87;;;18.47;;
59492;SDS011;45497;43.996;22.876;2023-03-01T01:19:14;26.50;;;18.50;;
59492;SDS011;45497;43.996;22.876;2023-03-01T01:21:40;26.70;;;18.70;;
59492;SDS011;45497;43.996;22.876;2023-03-01T01:24:08;26.42;;;18.45;;
59492;SDS011;45497;43.996;22.876;2023-03-01T01:26:34;25.52;;;18.27;;
59492;SDS011;45497;43.996;22.876;2023-03-01T01:29:02;25.48;;;17.48;;
59492;SDS011;45497;43.996;22.876;2023-03-01T01:31:29;27.00;;;17.35;;
59492;SDS011;45497;43.996;22.876;2023-03-01T01:33:56;26.00;;;17.77;;
59492;SDS011;45497;43.996;22.876;2023-03-01T01:36:24;26.85;;;17.73;;
59492;SDS011;45497;43.996;22.876;2023-03-01T01:38:50;24.25;;;17.35;;
59492;SDS011;45497;43.996;22.876;2023-03-01T01:41:16;25.13;;;17.65;;
59492;SDS011;45497;43.996;22.876;2023-03-01T01:43:47;26.40;;;16.73;;
59492;SDS011;45497;43.996;22.876;2023-03-01T01:46:43;25.23;;;17.77;;
59492;SDS011;45497;43.996;22.876;2023-03-01T01:51:44;22.73;;;16.10;;
59492;SDS011;45497;43.996;22.876;2023-03-01T01:54:17;24.08;;;17.15;;
59492;SDS011;45497;43.996;22.876;2023-03-01T01:56:52;24.30;;;16.15;;
59492;SDS011;45497;43.996;22.876;2023-03-01T01:59:22;21.63;;;15.93;;
59492;SDS011;45497;43.996;22.876;2023-03-01T02:01:53;23.85;;;16.17;;
59492;SDS011;45497;43.996;22.876;2023-03-01T02:04:19;20.23;;;14.48;;
59492;SDS011;45497;43.996;22.876;2023-03-01T02:06:49;21.13;;;15.77;;
59492;SDS011;45497;43.996;22.876;2023-03-01T02:09:22;19.98;;;14.98;;
59492;SDS011;45497;43.996;22.876;2023-03-01T02:11:49;22.13;;;14.77;;
59492;SDS011;45497;43.996;22.876;2023-03-01T02:14:16;19.98;;;15.10;;
59492;SDS011;45497;43.996;22.876;2023-03-01T02:16:42;20.80;;;14.63;;
59492;SDS011;45497;43.996;22.876;2023-03-01T02:19:08;19.42;;;14.30;;
59492;SDS011;45497;43.996;22.876;2023-03-01T02:24:43;21.77;;;14.70;;
59492;SDS011;45497;43.996;22.876;2023-03-01T02:30:38;18.92;;;14.48;;
59492;SDS011;45497;43.996;22.876;2023-03-01T02:33:24;19.30;;;13.55;;
59492;SDS011;45497;43.996;22.876;2023-03-01T02:35:51;19.25;;;13.52;;
59492;SDS011;45497;43.996;22.876;2023-03-01T02:38:19;20.35;;;13.63;;
59492;SDS011;45497;43.996;22.876;2023-03-01T02:40:46;19.77;;;14.02;;
59492;SDS011;45497;43.996;22.876;2023-03-01T02:43:13;19.92;;;14.23;;
59492;SDS011;45497;43.996;22.876;2023-03-01T02:45:43;18.38;;;13.52;;
59492;SDS011;45497;43.996;22.876;2023-03-01T02:48:14;19.07;;;14.50;;
59492;SDS011;45497;43.996;22.876;2023-03-01T02:50:51;21.93;;;14.53;;
59492;SDS011;45497;43.996;22.876;2023-03-01T02:53:41;19.45;;;14.52;;
59492;SDS011;45497;43.996;22.876;2023-03-01T02:56:29;21.33;;;14.03;;
59492;SDS011;45497;43.996;22.876;2023-03-01T02:58:55;20.43;;;13.70;;
59492;SDS011;45497;43.996;22.876;2023-03-01T03:01:25;21.33;;;13.93;;
59492;SDS011;45497;43.996;22.876;2023-03-01T03:04:02;21.05;;;13.98;;
59492;SDS011;45497;43.996;22.876;2023-03-01T03:06:35;21.53;;;14.23;;
59492;SDS011;45497;43.996;22.876;2023-03-01T03:09:02;18.98;;;13.02;;
59492;SDS011;45497;43.996;22.876;2023-03-01T03:11:28;20.88;;;13.85;;
59492;SDS011;45497;43.996;22.876;2023-03-01T03:13:54;19.48;;;13.90;;
59492;SDS011;45497;43.996;22.876;2023-03-01T03:16:20;19.88;;;13.85;;
59492;SDS011;45497;43.996;22.876;2023-03-01T03:18:46;19.33;;;13.77;;
59492;SDS011;45497;43.996;22.876;2023-03-01T03:21:12;20.70;;;13.30;;
59492;SDS011;45497;43.996;22.876;2023-03-01T03:23:38;22.13;;;15.20;;
59492;SDS011;45497;43.996;22.876;2023-03-01T03:26:04;19.33;;;14.10;;
59492;SDS011;45497;43.996;22.876;2023-03-01T03:28:31;18.77;;;13.50;;
59492;SDS011;45497;43.996;22.876;2023-03-01T03:30:57;20.35;;;14.38;;
59492;SDS011;45497;43.996;22.876;2023-03-01T03:33:24;18.17;;;13.02;;
59492;SDS011;45497;43.996;22.876;2023-03-01T03:35:50;18.50;;;13.10;;
59492;SDS011;45497;43.996;22.876;2023-03-01T03:38:17;18.38;;;13.00;;
59492;SDS011;45497;43.996;22.876;2023-03-01T03:40:48;18.95;;;12.90;;
59492;SDS011;45497;43.996;22.876;2023-03-01T03:43:27;19.40;;;13.15;;
59492;SDS011;45497;43.996;22.876;2023-03-01T03:45:53;20.77;;;13.60;;
59492;SDS011;45497;43.996;22.876;2023-03-01T03:48:19;23.27;;;14.43;;
59492;SDS011;45497;43.996;22.876;2023-03-01T03:50:51;19.50;;;13.90;;
59492;SDS011;45497;43.996;22.876;2023-03-01T03:53:21;19.97;;;14.03;;
59492;SDS011;45497;43.996;22.876;2023-03-01T03:55:48;19.08;;;12.70;;
59492;SDS011;45497;43.996;22.876;2023-03-01T03:58:14;17.85;;;11.95;;
59492;SDS011;45497;43.996;22.876;2023-03-01T04:00:42;19.95;;;12.52;;
59492;SDS011;45497;43.996;22.876;2023-03-01T04:03:10;17.60;;;12.52;;
59492;SDS011;45497;43.996;22.876;2023-03-01T04:05:37;19.17;;;12.87;;
59492;SDS011;45497;43.996;22.876;2023-03-01T04:08:04;18.92;;;12.73;;
59492;SDS011;45497;43.996;22.876;2023-03-01T04:10:43;18.98;;;12.95;;
59492;SDS011;45497;43.996;22.876;2023-03-01T04:13:11;17.63;;;12.60;;
59492;SDS011;45497;43.996;22.876;2023-03-01T04:15:38;17.85;;;12.23;;
59492;SDS011;45497;43.996;22.876;2023-03-01T04:18:05;16.95;;;12.30;;
59492;SDS011;45497;43.996;22.876;2023-03-01T04:20:32;18.40;;;12.65;;
59492;SDS011;45497;43.996;22.876;2023-03-01T04:23:09;19.92;;;12.70;;
59492;SDS011;45497;43.996;22.876;2023-03-01T04:25:42;19.02;;;12.57;;
59492;SDS011;45497;43.996;22.876;2023-03-01T04:28:11;19.83;;;13.20;;
59492;SDS011;45497;43.996;22.876;2023-03-01T04:30:37;18.63;;;13.27;;
59492;SDS011;45497;43.996;22.876;2023-03-01T04:33:04;19.02;;;12.68;;
59492;SDS011;45497;43.996;22.876;2023-03-01T04:35:30;15.73;;;12.33;;
59492;SDS011;45497;43.996;22.876;2023-03-01T04:37:57;19.92;;;12.98;;
59492;SDS011;45497;43.996;22.876;2023-03-01T04:40:22;17.40;;;12.32;;
59492;SDS011;45497;43.996;22.876;2023-03-01T04:42:48;19.75;;;13.48;;
59492;SDS011;45497;43.996;22.876;2023-03-01T04:45:14;19.98;;;13.48;;
59492;SDS011;45497;43.996;22.876;2023-03-01T04:47:40;21.10;;;14.02;;
59492;SDS011;45497;43.996;22.876;2023-03-01T04:50:07;21.92;;;13.60;;
59492;SDS011;45497;43.996;22.876;2023-03-01T04:52:34;18.63;;;13.15;;
59492;SDS011;45497;43.996;22.876;2023-03-01T04:55:00;19.42;;;13.55;;
59492;SDS011;45497;43.996;22.876;2023-03-01T04:57:26;20.80;;;13.45;;
59492;SDS011;45497;43.996;22.876;2023-03-01T04:59:52;19.73;;;13.70;;
59492;SDS011;45497;43.996;22.876;2023-03-01T05:02:17;19.97;;;13.63;;
59492;SDS011;45497;43.996;22.876;2023-03-01T05:04:42;20.27;;;13.80;;
59492;SDS011;45497;43.996;22.876;2023-03-01T05:07:08;20.00;;;13.48;;
59492;SDS011;45497;43.996;22.876;2023-03-01T05:09:34;21.65;;;14.48;;
59492;SDS011;45497;43.996;22.876;2023-03-01T05:11:59;21.60;;;15.40;;
59492;SDS011;45497;43.996;22.876;2023-03-01T05:14:24;20.87;;;14.27;;
59492;SDS011;45497;43.996;22.876;2023-03-01T05:16:50;21.33;;;14.23;;
59492;SDS011;45497;43.996;22.876;2023-03-01T05:19:15;19.90;;;14.93;;
59492;SDS011;45497;43.996;22.876;2023-03-01T05:21:42;20.87;;;15.20;;
59492;SDS011;45497;43.996;22.876;2023-03-01T05:24:27;20.17;;;14.52;;
59492;SDS011;45497;43.996;22.876;2023-03-01T05:26:53;22.05;;;15.55;;
59492;SDS011;45497;43.996;22.876;2023-03-01T05:29:19;24.73;;;16.23;;
59492;SDS011;45497;43.996;22.876;2023-03-01T05:31:58;25.30;;;16.77;;
59492;SDS011;45497;43.996;22.876;2023-03-01T05:34:27;22.63;;;15.48;;
59492;SDS011;45497;43.996;22.876;2023-03-01T05:36:57;23.08;;;16.13;;
59492;SDS011;45497;43.996;22.876;2023-03-01T05:39:24;17.90;;;13.20;;
59492;SDS011;45497;43.996;22.876;2023-03-01T05:41:52;23.17;;;15.15;;
59492;SDS011;45497;43.996;22.876;2023-03-01T05:44:19;19.10;;;13.90;;
59492;SDS011;45497;43.996;22.876;2023-03-01T05:46:45;20.00;;;13.82;;
59492;SDS011;45497;43.996;22.876;2023-03-01T05:49:11;24.45;;;15.60;;
59492;SDS011;45497;43.996;22.876;2023-03-01T05:51:38;23.80;;;15.00;;
59492;SDS011;45497;43.996;22.876;2023-03-01T05:54:04;20.20;;;14.18;;
59492;SDS011;45497;43.996;22.876;2023-03-01T05:56:32;20.17;;;14.60;;
59492;SDS011;45497;43.996;22.876;2023-03-01T05:59:01;21.25;;;13.95;;
59492;SDS011;45497;43.996;22.876;2023-03-01T06:01:27;24.75;;;14.82;;
59492;SDS011;45497;43.996;22.876;2023-03-01T06:03:52;20.85;;;14.52;;
59492;SDS011;45497;43.996;22.876;2023-03-01T06:06:18;21.02;;;13.25;;
59492;SDS011;45497;43.996;22.876;2023-03-01T06:08:43;20.37;;;13.37;;
59492;SDS011;45497;43.996;22.876;2023-03-01T06:11:09;21.50;;;13.60;;
59492;SDS011;45497;43.996;22.876;2023-03-01T06:13:35;21.50;;;12.77;;
59492;SDS011;45497;43.996;22.876;2023-03-01T06:16:03;21.52;;;13.82;;
59492;SDS011;45497;43.996;22.876;2023-03-01T06:18:30;19.13;;;12.45;;
59492;SDS011;45497;43.996;22.876;2023-03-01T06:20:56;18.83;;;13.30;;
59492;SDS011;45497;43.996;22.876;2023-03-01T06:23:22;18.23;;;12.77;;
59492;SDS011;45497;43.996;22.876;2023-03-01T06:25:48;20.30;;;13.27;;
59492;SDS011;45497;43.996;22.876;2023-03-01T06:28:14;18.13;;;12.10;;
59492;SDS011;45497;43.996;22.876;2023-03-01T06:30:39;18.77;;;12.50;;
59492;SDS011;45497;43.996;22.876;2023-03-01T06:33:05;20.27;;;13.18;;
59492;SDS011;45497;43.996;22.876;2023-03-01T06:35:30;18.00;;;12.95;;
59492;SDS011;45497;43.996;22.876;2023-03-01T06:37:56;21.30;;;13.63;;
59492;SDS011;45497;43.996;22.876;2023-03-01T06:40:23;18.93;;;11.93;;
59492;SDS011;45497;43.996;22.876;2023-03-01T06:42:49;17.17;;;12.20;;
59492;SDS011;45497;43.996;22.876;2023-03-01T06:45:15;17.35;;;12.55;;
59492;SDS011;45497;43.996;22.876;2023-03-01T06:47:42;18.65;;;12.68;;
59492;SDS011;45497;43.996;22.876;2023-03-01T06:50:07;18.90;;;12.60;;
59492;SDS011;45497;43.996;22.876;2023-03-01T06:52:33;21.35;;;14.93;;
59492;SDS011;45497;43.996;22.876;2023-03-01T06:54:59;21.17;;;14.33;;
59492;SDS011;45497;43.996;22.876;2023-03-01T06:57:25;19.70;;;13.10;;
59492;SDS011;45497;43.996;22.876;2023-03-01T06:59:51;21.13;;;13.67;;
59492;SDS011;45497;43.996;22.876;2023-03-01T07:02:16;22.77;;;14.57;;
59492;SDS011;45497;43.996;22.876;2023-03-01T07:04:42;20.25;;;13.88;;
59492;SDS011;45497;43.996;22.876;2023-03-01T07:07:08;23.63;;;14.95;;
59492;SDS011;45497;43.996;22.876;2023-03-01T07:09:34;19.30;;;13.90;;
59492;SDS011;45497;43.996;22.876;2023-03-01T07:11:59;19.23;;;13.67;;
59492;SDS011;45497;43.996;22.876;2023-03-01T07:14:25;22.60;;;14.07;;
59492;SDS011;45497;43.996;22.876;2023-03-01T07:16:54;22.27;;;14.07;;
59492;SDS011;45497;43.996;22.876;2023-03-01T07:19:20;21.48;;;14.23;;
59492;SDS011;45497;43.996;22.876;2023-03-01T07:21:46;22.20;;;13.43;;
59492;SDS011;45497;43.996;22.876;2023-03-01T07:24:12;20.23;;;13.43;;
59492;SDS011;45497;43.996;22.876;2023-03-01T07:26:37;19.93;;;13.67;;
59492;SDS011;45497;43.996;22.876;2023-03-01T07:29:03;19.10;;;12.32;;
59492;SDS011;45497;43.996;22.876;2023-03-01T07:31:30;19.52;;;13.35;;
59492;SDS011;45497;43.996;22.876;2023-03-01T07:33:56;23.88;;;14.20;;
59492;SDS011;45497;43.996;22.876;2023-03-01T07:36:22;19.17;;;13.52;;
59492;SDS011;45497;43.996;22.876;2023-03-01T07:38:48;18.63;;;13.13;;
59492;SDS011;45497;43.996;22.876;2023-03-01T07:41:13;19.95;;;12.63;;
59492;SDS011;45497;43.996;22.876;2023-03-01T07:43:39;21.40;;;13.47;;
59492;SDS011;45497;43.996;22.876;2023-03-01T07:46:05;19.17;;;12.60;;
59492;SDS011;45497;43.996;22.876;2023-03-01T07:48:32;19.17;;;12.18;;
59492;SDS011;45497;43.996;22.876;2023-03-01T07:50:59;23.92;;;12.95;;
59492;SDS011;45497;43.996;22.876;2023-03-01T07:53:26;21.08;;;13.75;;
59492;SDS011;45497;43.996;22.876;2023-03-01T07:56:01;21.67;;;13.60;;
59492;SDS011;45497;43.996;22.876;2023-03-01T07:58:27;24.40;;;15.10;;
59492;SDS011;45497;43.996;22.876;2023-03-01T08:00:52;19.87;;;14.07;;
59492;SDS011;45497;43.996;22.876;2023-03-01T08:03:18;20.63;;;13.87;;
59492;SDS011;45497;43.996;22.876;2023-03-01T08:05:43;20.27;;;13.93;;
59492;SDS011;45497;43.996;22.876;2023-03-01T08:08:09;19.97;;;13.23;;
59492;SDS011;45497;43.996;22.876;2023-03-01T08:10:35;20.47;;;14.00;;
59492;SDS011;45497;43.996;22.876;2023-03-01T08:13:01;18.97;;;13.33;;
59492;SDS011;45497;43.996;22.876;2023-03-01T08:15:27;20.43;;;13.47;;
59492;SDS011;45497;43.996;22.876;2023-03-01T08:17:52;22.40;;;14.60;;
59492;SDS011;45497;43.996;22.876;2023-03-01T08:20:18;18.10;;;13.30;;
59492;SDS011;45497;43.996;22.876;2023-03-01T08:22:43;19.40;;;14.00;;
59492;SDS011;45497;43.996;22.876;2023-03-01T08:25:09;25.63;;;14.60;;
59492;SDS011;45497;43.996;22.876;2023-03-01T08:27:34;21.80;;;13.47;;
59492;SDS011;45497;43.996;22.876;2023-03-01T08:30:00;21.35;;;14.10;;
59492;SDS011;45497;43.996;22.876;2023-03-01T08:32:25;20.87;;;14.40;;
59492;SDS011;45497;43.996;22.876;2023-03-01T08:34:51;23.13;;;15.13;;
59492;SDS011;45497;43.996;22.876;2023-03-01T08:37:16;20.48;;;13.80;;
59492;SDS011;45497;43.996;22.876;2023-03-01T08:39:42;19.67;;;12.77;;
59492;SDS011;45497;43.996;22.876;2023-03-01T08:42:07;21.10;;;14.10;;
59492;SDS011;45497;43.996;22.876;2023-03-01T08:44:33;19.15;;;11.98;;
59492;SDS011;45497;43.996;22.876;2023-03-01T08:47:00;30.60;;;15.40;;
59492;SDS011;45497;43.996;22.876;2023-03-01T08:49:27;20.83;;;13.85;;
59492;SDS011;45497;43.996;22.876;2023-03-01T08:51:52;19.67;;;13.13;;
59492;SDS011;45497;43.996;22.876;2023-03-01T08:54:20;18.30;;;12.48;;
59492;SDS011;45497;43.996;22.876;2023-03-01T08:56:46;18.20;;;13.00;;
59492;SDS011;45497;43.996;22.876;2023-03-01T08:59:13;18.70;;;12.13;;
59492;SDS011;45497;43.996;22.876;2023-03-01T09:01:40;17.83;;;12.57;;
59492;SDS011;45497;43.996;22.876;2023-03-01T09:04:08;21.60;;;14.57;;
59492;SDS011;45497;43.996;22.876;2023-03-01T09:06:34;24.92;;;14.95;;
59492;SDS011;45497;43.996;22.876;2023-03-01T09:09:00;39.77;;;21.10;;
59492;SDS011;45497;43.996;22.876;2023-03-01T09:11:27;51.13;;;24.55;;
59492;SDS011;45497;43.996;22.876;2023-03-01T09:13:53;74.22;;;32.50;;
59492;SDS011;45497;43.996;22.876;2023-03-01T09:16:19;36.28;;;19.73;;
59492;SDS011;45497;43.996;22.876;2023-03-01T09:18:48;23.52;;;15.23;;
59492;SDS011;45497;43.996;22.876;2023-03-01T09:21:16;19.65;;;13.63;;
59492;SDS011;45497;43.996;22.876;2023-03-01T09:23:44;19.02;;;13.05;;
59492;SDS011;45497;43.996;22.876;2023-03-01T09:26:12;19.52;;;13.00;;
59492;SDS011;45497;43.996;22.876;2023-03-01T09:28:44;20.55;;;14.30;;
59492;SDS011;45497;43.996;22.876;2023-03-01T09:31:10;26.05;;;17.05;;
59492;SDS011;45497;43.996;22.876;2023-03-01T09:33:38;23.38;;;15.52;;
59492;SDS011;45497;43.996;22.876;2023-03-01T09:36:05;20.30;;;14.50;;
59492;SDS011;45497;43.996;22.876;2023-03-01T09:38:33;24.52;;;15.07;;
59492;SDS011;45497;43.996;22.876;2023-03-01T09:41:02;24.15;;;15.15;;
59492;SDS011;45497;43.996;22.876;2023-03-01T09:46:22;19.42;;;13.68;;
59492;SDS011;45497;43.996;22.876;2023-03-01T09:48:51;21.55;;;12.77;;
59492;SDS011;45497;43.996;22.876;2023-03-01T09:51:30;19.85;;;12.63;;
59492;SDS011;45497;43.996;22.876;2023-03-01T09:54:00;24.10;;;14.80;;
59492;SDS011;45497;43.996;22.876;2023-03-01T09:56:38;19.65;;;12.93;;
59492;SDS011;45497;43.996;22.876;2023-03-01T10:01:55;19.02;;;12.85;;
59492;SDS011;45497;43.996;22.876;2023-03-01T10:04:51;19.20;;;13.40;;
59492;SDS011;45497;43.996;22.876;2023-03-01T10:09:48;21.83;;;13.00;;
59492;SDS011;45497;43.996;22.876;2023-03-01T10:23:16;25.05;;;16.23;;
59492;SDS011;45497;43.996;22.876;2023-03-01T10:34:16;19.90;;;13.43;;
59492;SDS011;45497;43.996;22.876;2023-03-01T10:36:53;21.63;;;13.98;;
59492;SDS011;45497;43.996;22.876;2023-03-01T10:39:22;21.13;;;14.30;;
59492;SDS011;45497;43.996;22.876;2023-03-01T10:44:37;22.20;;;15.38;;
59492;SDS011;45497;43.996;22.876;2023-03-01T10:47:04;20.92;;;14.82;;
59492;SDS011;45497;43.996;22.876;2023-03-01T10:49:31;19.90;;;14.23;;
59492;SDS011;45497;43.996;22.876;2023-03-01T10:51:56;22.60;;;15.50;;
59492;SDS011;45497;43.996;22.876;2023-03-01T10:54:43;23.60;;;15.50;;
59492;SDS011;45497;43.996;22.876;2023-03-01T10:57:34;18.67;;;13.63;;
59492;SDS011;45497;43.996;22.876;2023-03-01T11:00:14;21.58;;;14.60;;
59492;SDS011;45497;43.996;22.876;2023-03-01T11:02:46;18.60;;;13.02;;
59492;SDS011;45497;43.996;22.876;2023-03-01T11:07:47;22.88;;;15.20;;
59492;SDS011;45497;43.996;22.876;2023-03-01T11:10:16;20.35;;;14.45;;
59492;SDS011;45497;43.996;22.876;2023-03-01T11:12:42;22.38;;;14.25;;
59492;SDS011;45497;43.996;22.876;2023-03-01T11:15:08;25.23;;;14.70;;
59492;SDS011;45497;43.996;22.876;2023-03-01T11:17:49;19.17;;;13.57;;
59492;SDS011;45497;43.996;22.876;2023-03-01T11:20:18;20.08;;;13.40;;
59492;SDS011;45497;43.996;22.876;2023-03-01T11:22:56;21.65;;;14.40;;
59492;SDS011;45497;43.996;22.876;2023-03-01T11:25:27;20.30;;;13.97;;
59492;SDS011;45497;43.996;22.876;2023-03-01T11:27:58;18.88;;;13.77;;
59492;SDS011;45497;43.996;22.876;2023-03-01T11:30:39;18.65;;;13.70;;
59492;SDS011;45497;43.996;22.876;2023-03-01T11:33:30;23.67;;;15.55;;
59492;SDS011;45497;43.996;22.876;2023-03-01T11:39:17;17.00;;;11.25;;
59492;SDS011;45497;43.996;22.876;2023-03-01T11:41:56;17.40;;;11.55;;
59492;SDS011;45497;43.996;22.876;2023-03-01T11:44:43;15.57;;;11.47;;
59492;SDS011;45497;43.996;22.876;2023-03-01T11:52:51;19.95;;;12.95;;
59492;SDS011;45497;43.996;22.876;2023-03-01T11:55:59;19.10;;;13.35;;
59492;SDS011;45497;43.996;22.876;2023-03-01T11:58:43;22.10;;;15.30;;
59492;SDS011;45497;43.996;22.876;2023-03-01T12:17:50;15.75;;;11.90;;
59492;SDS011;45497;43.996;22.876;2023-03-01T12:25:46;16.45;;;12.52;;
59492;SDS011;45497;43.996;22.876;2023-03-01T12:28:25;17.17;;;11.88;;
59492;SDS011;45497;43.996;22.876;2023-03-01T12:36:40;15.35;;;10.57;;
59492;SDS011;45497;43.996;22.876;2023-03-01T12:50:47;14.23;;;10.57;;
59492;SDS011;45497;43.996;22.876;2023-03-01T12:53:34;13.63;;;10.40;;
59492;SDS011;45497;43.996;22.876;2023-03-01T12:56:09;16.65;;;11.07;;
59492;SDS011;45497;43.996;22.876;2023-03-01T13:09:44;15.90;;;11.53;;
59492;SDS011;45497;43.996;22.876;2023-03-01T13:17:48;16.27;;;11.55;;
59492;SDS011;45497;43.996;22.876;2023-03-01T13:20:23;19.80;;;12.95;;
59492;SDS011;45497;43.996;22.876;2023-03-01T13:23:03;19.23;;;13.77;;
59492;SDS011;45497;43.996;22.876;2023-03-01T13:25:29;21.58;;;13.70;;
59492;SDS011;45497;43.996;22.876;2023-03-01T13:28:32;19.30;;;12.93;;
59492;SDS011;45497;43.996;22.876;2023-03-01T13:30:58;15.57;;;11.45;;
59492;SDS011;45497;43.996;22.876;2023-03-01T13:35:52;16.15;;;12.13;;
59492;SDS011;45497;43.996;22.876;2023-03-01T13:44:21;15.50;;;11.10;;
59492;SDS011;45497;43.996;22.876;2023-03-01T13:46:51;16.95;;;10.77;;
59492;SDS011;45497;43.996;22.876;2023-03-01T13:49:19;14.52;;;10.50;;
59492;SDS011;45497;43.996;22.876;2023-03-01T13:51:48;15.23;;;10.55;;
59492;SDS011;45497;43.996;22.876;2023-03-01T13:54:16;16.90;;;11.50;;
59492;SDS011;45497;43.996;22.876;2023-03-01T13:56:56;16.80;;;11.15;;
59492;SDS011;45497;43.996;22.876;2023-03-01T13:59:24;17.30;;;12.13;;
59492;SDS011;45497;43.996;22.876;2023-03-01T14:01:58;17.58;;;11.90;;
59492;SDS011;45497;43.996;22.876;2023-03-01T14:04:26;16.97;;;11.53;;
59492;SDS011;45497;43.996;22.876;2023-03-01T14:07:11;17.73;;;12.55;;
59492;SDS011;45497;43.996;22.876;2023-03-01T14:09:56;17.48;;;11.75;;
59492;SDS011;45497;43.996;22.876;2023-03-01T14:20:43;19.10;;;13.27;;
59492;SDS011;45497;43.996;22.876;2023-03-01T14:23:17;17.67;;;12.75;;
59492;SDS011;45497;43.996;22.876;2023-03-01T14:28:22;18.23;;;11.90;;
59492;SDS011;45497;43.996;22.876;2023-03-01T14:30:52;20.10;;;13.48;;
59492;SDS011;45497;43.996;22.876;2023-03-01T14:33:26;23.25;;;14.13;;
59492;SDS011;45497;43.996;22.876;2023-03-01T14:36:07;22.23;;;15.10;;
59492;SDS011;45497;43.996;22.876;2023-03-01T14:38:38;21.73;;;15.15;;
59492;SDS011;45497;43.996;22.876;2023-03-01T14:46:35;21.88;;;15.15;;
59492;SDS011;45497;43.996;22.876;2023-03-01T14:51:38;20.73;;;14.02;;
59492;SDS011;45497;43.996;22.876;2023-03-01T14:54:19;20.27;;;14.35;;
59492;SDS011;45497;43.996;22.876;2023-03-01T14:57:05;21.80;;;13.18;;
59492;SDS011;45497;43.996;22.876;2023-03-01T14:59:33;19.58;;;13.60;;
59492;SDS011;45497;43.996;22.876;2023-03-01T15:01:59;20.75;;;14.23;;
59492;SDS011;45497;43.996;22.876;2023-03-01T15:04:26;20.58;;;14.32;;
59492;SDS011;45497;43.996;22.876;2023-03-01T15:06:54;18.92;;;13.80;;
59492;SDS011;45497;43.996;22.876;2023-03-01T15:09:21;21.25;;;15.15;;
59492;SDS011;45497;43.996;22.876;2023-03-01T15:11:49;22.20;;;13.88;;
59492;SDS011;45497;43.996;22.876;2023-03-01T15:17:42;22.40;;;15.32;;
59492;SDS011;45497;43.996;22.876;2023-03-01T15:20:04;20.05;;;13.57;;
59492;SDS011;45497;43.996;22.876;2023-03-01T15:22:32;19.33;;;12.82;;
59492;SDS011;45497;43.996;22.876;2023-03-01T15:24:58;17.05;;;12.48;;
59492;SDS011;45497;43.996;22.876;2023-03-01T15:27:24;18.08;;;13.07;;
59492;SDS011;45497;43.996;22.876;2023-03-01T15:29:56;17.58;;;11.88;;
59492;SDS011;45497;43.996;22.876;2023-03-01T15:32:28;22.55;;;13.00;;
59492;SDS011;45497;43.996;22.876;2023-03-01T15:40:55;23.02;;;15.20;;
59492;SDS011;45497;43.996;22.876;2023-03-01T15:43:41;23.05;;;14.10;;
59492;SDS011;45497;43.996;22.876;2023-03-01T15:46:31;25.15;;;14.38;;
59492;SDS011;45497;43.996;22.876;2023-03-01T15:49:03;22.00;;;14.38;;
59492;SDS011;45497;43.996;22.876;2023-03-01T15:51:34;20.85;;;13.75;;
59492;SDS011;45497;43.996;22.876;2023-03-01T15:54:06;21.58;;;13.98;;
59492;SDS011;45497;43.996;22.876;2023-03-01T15:56:40;20.75;;;14.10;;
59492;SDS011;45497;43.996;22.876;2023-03-01T15:59:05;20.40;;;13.87;;
59492;SDS011;45497;43.996;22.876;2023-03-01T16:01:36;20.25;;;13.98;;
59492;SDS011;45497;43.996;22.876;2023-03-01T16:04:02;22.43;;;14.63;;
59492;SDS011;45497;43.996;22.876;2023-03-01T16:06:27;22.63;;;14.87;;
59492;SDS011;45497;43.996;22.876;2023-03-01T16:08:53;22.83;;;14.52;;
59492;SDS011;45497;43.996;22.876;2023-03-01T16:11:19;20.43;;;13.97;;
59492;SDS011;45497;43.996;22.876;2023-03-01T16:13:45;22.25;;;14.45;;
59492;SDS011;45497;43.996;22.876;2023-03-01T16:16:11;21.73;;;13.88;;
59492;SDS011;45497;43.996;22.876;2023-03-01T16:18:41;23.50;;;14.40;;
59492;SDS011;45497;43.996;22.876;2023-03-01T16:21:18;24.67;;;15.65;;
59492;SDS011;45497;43.996;22.876;2023-03-01T16:23:46;30.90;;;18.40;;
59492;SDS011;45497;43.996;22.876;2023-03-01T16:26:12;32.92;;;19.65;;
59492;SDS011;45497;43.996;22.876;2023-03-01T16:28:42;34.50;;;19.85;;
59492;SDS011;45497;43.996;22.876;2023-03-01T16:31:08;41.10;;;23.35;;
59492;SDS011;45497;43.996;22.876;2023-03-01T16:33:35;40.22;;;22.00;;
59492;SDS011;45497;43.996;22.876;2023-03-01T16:36:01;40.60;;;23.13;;
59492;SDS011;45497;43.996;22.876;2023-03-01T16:38:32;24.98;;;15.60;;
59492;SDS011;45497;43.996;22.876;2023-03-01T16:40:57;58.10;;;28.45;;
59492;SDS011;45497;43.996;22.876;2023-03-01T16:43:23;34.07;;;19.33;;
59492;SDS011;45497;43.996;22.876;2023-03-01T16:45:48;58.50;;;27.53;;